createdAt,value
2019-03-25T00:03:12.407Z,4.56
2019-03-25T00:07:15.964Z,4.62
2019-03-25T00:11:19.843Z,4.64
2019-03-25T00:15:23.630Z,4.43
2019-03-25T00:19:27.261Z,4.41
2019-03-25T00:23:30.870Z,4.32
2019-03-25T00:27:34.477Z,4.30
2019-03-25T00:31:38.194Z,4.39
2019-03-25T00:35:41.800Z,4.56
2019-03-25T00:39:45.346Z,4.52
2019-03-25T00:43:48.930Z,4.65
2019-03-25T00:47:52.495Z,4.65
2019-03-25T00:51:56.040Z,4.64
2019-03-25T00:55:59.663Z,4.66
2019-03-25T01:00:03.584Z,4.78
2019-03-25T01:04:07.405Z,4.73
2019-03-25T01:08:11.017Z,4.79
2019-03-25T01:12:15.039Z,4.81
2019-03-25T01:16:18.754Z,4.73
2019-03-25T01:20:22.516Z,4.68
2019-03-25T01:24:27.947Z,4.74
2019-03-25T01:28:32.151Z,4.85
2019-03-25T01:32:36.400Z,4.76
2019-03-25T01:36:40.103Z,4.61
2019-03-25T01:40:43.718Z,4.68
2019-03-25T01:44:47.330Z,4.73
2019-03-25T01:48:50.945Z,4.74
2019-03-25T01:52:54.490Z,4.75
2019-03-25T01:56:58.178Z,4.77
2019-03-25T02:01:01.787Z,4.83
2019-03-25T02:05:06.900Z,4.83
2019-03-25T02:09:10.550Z,4.72
2019-03-25T02:13:14.164Z,4.86
2019-03-25T02:17:17.880Z,4.77
2019-03-25T02:21:21.504Z,4.79
2019-03-25T02:25:25.944Z,4.79
2019-03-25T02:29:29.746Z,4.73
2019-03-25T02:33:33.565Z,4.67
2019-03-25T02:37:37.177Z,4.56
2019-03-25T02:41:40.793Z,4.49
2019-03-25T02:45:44.410Z,4.36
2019-03-25T02:49:48.017Z,4.43
2019-03-25T02:53:51.559Z,4.40
2019-03-25T02:57:55.150Z,4.46
2019-03-25T03:01:58.861Z,4.34
2019-03-25T03:06:02.582Z,4.26
2019-03-25T03:10:07.585Z,4.13
2019-03-25T03:14:14.893Z,4.02
2019-03-25T03:18:16.490Z,3.97
2019-03-25T03:22:20.205Z,3.62
2019-03-25T03:26:23.925Z,3.62
2019-03-25T03:30:27.754Z,3.47
2019-03-25T03:34:31.276Z,3.38
2019-03-25T03:38:34.871Z,3.41
2019-03-25T03:42:38.680Z,3.39
2019-03-25T03:46:42.312Z,3.48
2019-03-25T03:50:46.015Z,3.40
2019-03-25T03:54:50.384Z,3.36
2019-03-25T03:58:54.265Z,3.29
2019-03-25T04:02:57.927Z,3.24
2019-03-25T04:07:01.518Z,3.19
2019-03-25T04:11:05.212Z,3.13
2019-03-25T04:15:09.176Z,2.97
2019-03-25T04:19:12.751Z,3.12
2019-03-25T04:23:16.368Z,3.01
2019-03-25T04:27:21.611Z,3.09
2019-03-25T04:31:25.324Z,2.97
2019-03-25T04:35:29.042Z,3.03
2019-03-25T04:39:32.666Z,2.94
2019-03-25T04:43:36.188Z,2.92
2019-03-25T04:47:39.788Z,2.93
2019-03-25T04:51:44.852Z,2.97
2019-03-25T04:55:48.748Z,2.95
2019-03-25T04:59:52.360Z,2.83
2019-03-25T05:03:55.975Z,2.81
2019-03-25T05:07:59.691Z,2.94
2019-03-25T05:12:03.414Z,2.91
2019-03-25T05:16:07.019Z,3.15
2019-03-25T05:20:10.737Z,3.07
2019-03-25T05:24:14.978Z,3.00
2019-03-25T05:28:18.690Z,3.19
2019-03-25T05:32:22.401Z,3.23
2019-03-25T05:36:26.014Z,3.26
2019-03-25T05:40:29.631Z,3.27
2019-03-25T05:44:33.239Z,3.20
2019-03-25T05:48:36.858Z,3.24
2019-03-25T05:52:40.576Z,3.36
2019-03-25T05:56:44.394Z,3.53
2019-03-25T06:00:48.107Z,3.66
2019-03-25T06:04:51.722Z,3.78
2019-03-25T06:08:55.335Z,3.76
2019-03-25T06:12:59.058Z,4.01
2019-03-25T06:17:02.666Z,4.03
2019-03-25T06:21:06.386Z,4.06
2019-03-25T06:25:10.259Z,3.96
2019-03-25T06:29:13.921Z,3.86
2019-03-25T06:33:17.627Z,3.88
2019-03-25T06:37:21.244Z,3.90
2019-03-25T06:41:24.960Z,4.14
2019-03-25T06:45:28.577Z,4.34
2019-03-25T06:49:32.187Z,4.69
2019-03-25T06:53:35.912Z,6.32
2019-03-25T06:57:39.829Z,7.41
2019-03-25T07:01:43.540Z,9.70
2019-03-25T07:05:47.153Z,8.77
2019-03-25T07:09:50.879Z,8.00
2019-03-25T07:13:55.204Z,6.98
2019-03-25T07:17:59.937Z,6.99
2019-03-25T07:22:03.559Z,7.16
2019-03-25T07:26:07.277Z,8.21
2019-03-25T07:30:11.670Z,7.23
2019-03-25T07:34:15.471Z,7.00
2019-03-25T07:38:19.139Z,6.90
2019-03-25T07:42:22.751Z,7.01
2019-03-25T07:46:26.367Z,6.28
2019-03-25T07:50:30.082Z,5.78
2019-03-25T07:54:33.818Z,5.56
2019-03-25T07:58:37.365Z,5.49
2019-03-25T08:02:41.050Z,5.86
2019-03-25T08:06:44.742Z,6.16
2019-03-25T08:10:48.717Z,6.96
2019-03-25T08:14:52.295Z,7.29
2019-03-25T08:18:55.990Z,7.59
2019-03-25T08:22:59.708Z,6.94
2019-03-25T08:27:03.427Z,6.79
2019-03-25T08:31:07.140Z,7.67
2019-03-25T08:35:11.311Z,7.58
2019-03-25T08:39:15.209Z,7.18
2019-03-25T08:43:19.057Z,6.37
2019-03-25T08:47:22.625Z,5.67
2019-03-25T08:51:26.577Z,5.26
2019-03-25T08:55:30.258Z,5.18
2019-03-25T08:59:33.978Z,4.89
2019-03-25T09:03:38.050Z,4.85
2019-03-25T09:07:41.752Z,4.87
2019-03-25T09:11:45.776Z,4.92
2019-03-25T09:15:49.314Z,5.29
2019-03-25T09:19:53.076Z,5.08
2019-03-25T09:23:57.296Z,5.33
2019-03-25T09:28:01.217Z,5.46
2019-03-25T09:32:04.933Z,5.91
2019-03-25T09:36:08.765Z,5.82
2019-03-25T09:40:12.677Z,6.53
2019-03-25T09:44:16.301Z,7.22
2019-03-25T09:48:20.233Z,7.51
2019-03-25T09:52:23.992Z,7.27
2019-03-25T09:56:27.778Z,7.98
2019-03-25T10:00:32.736Z,8.61
2019-03-25T10:04:36.403Z,9.31
2019-03-25T10:08:40.022Z,8.71
2019-03-25T10:12:43.739Z,8.83
2019-03-25T10:16:47.368Z,7.41
2019-03-25T10:20:50.960Z,6.95
2019-03-25T10:24:54.579Z,6.70
2019-03-25T10:28:58.303Z,6.01
2019-03-25T10:33:01.903Z,5.37
2019-03-25T10:37:06.057Z,4.98
2019-03-25T10:41:09.862Z,4.59
2019-03-25T10:45:14.591Z,4.39
2019-03-25T10:49:18.304Z,4.31
2019-03-25T10:53:21.987Z,4.07
2019-03-25T10:57:25.637Z,4.14
2019-03-25T11:01:29.451Z,4.16
2019-03-25T11:05:33.169Z,5.09
2019-03-25T11:09:36.892Z,6.34
2019-03-25T11:13:41.839Z,7.50
2019-03-25T11:17:45.555Z,8.92
2019-03-25T11:21:49.268Z,9.06
2019-03-25T11:25:52.981Z,8.25
2019-03-25T11:29:56.600Z,7.03
2019-03-25T11:34:00.309Z,7.04
2019-03-25T11:38:03.922Z,7.17
2019-03-25T11:42:10.183Z,7.55
2019-03-25T11:46:13.329Z,7.21
2019-03-25T11:50:17.120Z,8.01
2019-03-25T11:54:20.839Z,8.07
2019-03-25T11:58:24.450Z,8.12
2019-03-25T12:02:28.166Z,8.76
2019-03-25T12:06:31.885Z,8.94
2019-03-25T12:10:35.582Z,8.77
2019-03-25T12:14:39.211Z,9.16
2019-03-25T12:18:42.827Z,9.38
2019-03-25T12:22:46.552Z,9.21
2019-03-25T12:26:50.260Z,10.05
2019-03-25T12:30:53.912Z,11.44
2019-03-25T12:34:57.598Z,10.25
2019-03-25T12:39:01.134Z,10.06
2019-03-25T12:43:04.921Z,9.22
2019-03-25T12:47:08.532Z,8.47
2019-03-25T12:51:12.249Z,7.61
2019-03-25T12:55:15.867Z,6.19
2019-03-25T12:59:19.487Z,5.88
2019-03-25T13:03:23.192Z,6.24
2019-03-25T13:07:26.812Z,7.29
2019-03-25T13:11:30.425Z,8.09
2019-03-25T13:15:34.139Z,8.38
2019-03-25T13:19:37.748Z,8.52
2019-03-25T13:23:41.364Z,8.58
2019-03-25T13:27:45.015Z,9.50
2019-03-25T13:31:48.589Z,9.81
2019-03-25T13:35:52.616Z,9.53
2019-03-25T13:39:56.235Z,9.29
2019-03-25T13:43:59.846Z,8.88
2019-03-25T13:48:03.421Z,8.58
2019-03-25T13:52:07.073Z,8.52
2019-03-25T13:56:11.916Z,8.95
2019-03-25T14:00:16.096Z,9.28
2019-03-25T14:04:19.772Z,9.40
2019-03-25T14:08:23.378Z,9.12
2019-03-25T14:12:26.986Z,9.36
2019-03-25T14:16:30.546Z,9.47
2019-03-25T14:20:34.222Z,9.45
2019-03-25T14:24:38.237Z,9.97
2019-03-25T14:28:42.220Z,9.69
2019-03-25T14:32:45.990Z,9.09
2019-03-25T14:36:49.592Z,8.59
2019-03-25T14:40:53.199Z,7.86
2019-03-25T14:44:56.919Z,8.17
2019-03-25T14:49:00.739Z,8.73
2019-03-25T14:53:04.459Z,8.64
2019-03-25T14:57:08.403Z,8.47
2019-03-25T15:01:12.674Z,8.45
2019-03-25T15:05:16.551Z,8.36
2019-03-25T15:09:20.154Z,8.26
2019-03-25T15:13:23.959Z,8.29
2019-03-25T15:17:27.683Z,8.26
2019-03-25T15:21:31.288Z,8.17
2019-03-25T15:25:35.554Z,8.26
2019-03-25T15:29:39.436Z,8.32
2019-03-25T15:33:43.592Z,8.28
2019-03-25T15:37:47.431Z,8.30
2019-03-25T15:41:51.204Z,8.09
2019-03-25T15:45:55.270Z,7.87
2019-03-25T15:49:59.871Z,7.78
2019-03-25T15:54:03.883Z,7.85
2019-03-25T15:58:07.814Z,7.88
2019-03-25T16:02:11.491Z,8.08
2019-03-25T16:06:15.149Z,8.01
2019-03-25T16:10:18.956Z,7.97
2019-03-25T16:14:22.780Z,8.02
2019-03-25T16:18:38.179Z,7.90
2019-03-25T16:22:41.761Z,8.08
2019-03-25T16:26:45.611Z,8.01
2019-03-25T16:30:58.256Z,7.48
2019-03-25T16:34:55.002Z,7.28
2019-03-25T16:38:58.594Z,7.36
2019-03-25T16:43:02.353Z,7.21
2019-03-25T16:47:06.156Z,7.20
2019-03-25T16:51:09.757Z,7.18
2019-03-25T16:55:13.569Z,7.13
2019-03-25T16:59:17.334Z,7.16
2019-03-25T17:03:20.994Z,7.11
2019-03-25T17:07:25.629Z,7.10
2019-03-25T17:11:29.244Z,7.11
2019-03-25T17:15:34.085Z,7.11
2019-03-25T17:19:37.704Z,7.11
2019-03-25T17:23:41.418Z,7.13
2019-03-25T17:27:45.031Z,7.08
2019-03-25T17:31:48.645Z,7.14
2019-03-25T17:35:52.270Z,7.06
2019-03-25T17:39:55.824Z,7.09
2019-03-25T17:43:59.483Z,7.06
2019-03-25T17:48:03.116Z,6.93
2019-03-25T17:52:06.718Z,6.95
2019-03-25T17:56:10.330Z,6.96
2019-03-25T18:00:14.842Z,6.99
2019-03-25T18:04:18.476Z,6.90
2019-03-25T18:08:22.096Z,6.88
2019-03-25T18:12:25.708Z,6.89
2019-03-25T18:16:29.425Z,6.82
2019-03-25T18:20:33.039Z,6.79
2019-03-25T18:24:36.756Z,6.67
2019-03-25T18:28:40.367Z,6.60
2019-03-25T18:32:43.982Z,6.59
2019-03-25T18:36:47.593Z,6.66
2019-03-25T18:40:51.207Z,6.65
2019-03-25T18:44:54.923Z,6.52
2019-03-25T18:48:58.539Z,6.56
2019-03-25T18:53:02.373Z,6.55
2019-03-25T18:57:06.073Z,6.57
2019-03-25T19:01:09.775Z,6.55
2019-03-25T19:05:13.516Z,6.48
2019-03-25T19:09:21.372Z,6.33
2019-03-25T19:13:24.944Z,6.26
2019-03-25T19:17:28.557Z,6.13
2019-03-25T19:21:32.091Z,5.99
2019-03-25T19:25:35.782Z,5.86
2019-03-25T19:29:39.394Z,5.87
2019-03-25T19:33:43.003Z,5.60
2019-03-25T19:37:46.724Z,5.35
2019-03-25T19:41:51.222Z,5.18
2019-03-25T19:45:54.876Z,5.03
2019-03-25T19:49:58.526Z,5.12
2019-03-25T19:54:02.097Z,5.11
2019-03-25T19:58:06.886Z,5.10
2019-03-25T20:02:19.090Z,5.13
2019-03-25T20:06:25.750Z,5.06
2019-03-25T20:10:32.605Z,4.92
2019-03-25T20:14:36.239Z,4.80
2019-03-25T20:18:39.870Z,4.68
2019-03-25T20:22:43.694Z,4.50
2019-03-25T20:26:47.287Z,4.37
2019-03-25T20:30:51.018Z,4.29
2019-03-25T20:34:54.642Z,4.14
2019-03-25T20:38:58.232Z,4.03
2019-03-25T20:43:01.783Z,3.94
2019-03-25T20:47:05.518Z,3.78
2019-03-25T20:51:09.173Z,3.69
2019-03-25T20:55:12.791Z,3.58
2019-03-25T20:59:16.610Z,3.49
2019-03-25T21:03:20.454Z,3.40
2019-03-25T21:07:24.067Z,3.30
2019-03-25T21:11:27.679Z,3.23
2019-03-25T21:15:32.328Z,3.13
2019-03-25T21:19:35.905Z,3.13
2019-03-25T21:23:39.555Z,3.07
2019-03-25T21:27:43.139Z,3.06
2019-03-25T21:31:46.806Z,2.89
2019-03-25T21:35:50.565Z,2.72
2019-03-25T21:39:54.192Z,2.68
2019-03-25T21:43:57.805Z,2.85
2019-03-25T21:48:01.414Z,2.92
2019-03-25T21:52:05.163Z,2.97
2019-03-25T21:56:08.833Z,3.03
2019-03-25T22:00:13.170Z,3.06
2019-03-25T22:04:16.886Z,3.07
2019-03-25T22:08:20.501Z,3.00
2019-03-25T22:12:24.159Z,2.85
2019-03-25T22:16:27.733Z,2.76
2019-03-25T22:20:31.434Z,2.69
2019-03-25T22:24:35.057Z,2.61
2019-03-25T22:28:38.621Z,2.59
2019-03-25T22:32:42.285Z,2.70
2019-03-25T22:36:45.949Z,2.78
2019-03-25T22:40:49.536Z,2.89
2019-03-25T22:44:53.230Z,2.82
2019-03-25T22:48:56.953Z,2.75
2019-03-25T22:53:00.855Z,2.96
2019-03-25T22:57:04.482Z,2.99
2019-03-25T23:01:08.277Z,2.87
2019-03-25T23:05:12.115Z,2.79
2019-03-25T23:09:15.836Z,2.86
2019-03-25T23:13:19.447Z,2.91
2019-03-25T23:17:23.061Z,2.92
2019-03-25T23:21:26.674Z,2.84
2019-03-25T23:25:30.397Z,2.80
2019-03-25T23:29:34.031Z,2.82
2019-03-25T23:33:37.721Z,2.78
2019-03-25T23:37:41.336Z,2.82
2019-03-25T23:41:44.876Z,2.89
2019-03-25T23:45:48.457Z,2.88
2019-03-25T23:49:52.180Z,2.85
2019-03-25T23:53:57.426Z,3.12
2019-03-25T23:58:01.040Z,3.10
